Flight Track Log - Related Links

Times and Time Zones

All times are in EST time to prevent confusion due to time zone crossing. See the N28JK flight status page for this flight to view local times or setup timezone preferences in your user account.

Time Position Orientation Groundspeed Altitude Reporting Facility
EST Latitude Longitude Course Direction KTS MPH feet Rate Location/Type
Sat 12:21:33 PM 34.7633 -78.3706 37° Northeast 199 229 8,200  Level Washington Center
Sat 12:22:35 PM 34.8075 -78.3569 14° North 200 230 10,000 1,721 Climbing Washington Center
Sat 12:23:35 PM 34.8519 -78.3331 24° Northeast 189 217 11,700 1,686 Climbing Washington Center
Sat 12:24:00 PM 34.9247 -78.4130 24° Northeast  Level Estimated
Sat 12:24:36 PM 34.9025 -78.3069 23° Northeast 189 217 13,400  Level Washington Center
Sat 12:25:00 PM 34.9785 -78.3852 15° North  Level Estimated
Sat 12:25:34 PM 34.9575 -78.2833 19° North 195 224 15,100  Level Washington Center
Sat 12:26:35 PM 35.0122 -78.2547 23° Northeast 195 224 16,900 1,736 Climbing Washington Center
Sat 12:27:35 PM 35.0650 -78.2336 18° North 195 224 18,600 1,686 Climbing Washington Center
Sat 12:28:36 PM 35.1175 -78.2075 22° Northeast 195 224 20,300 1,736 Climbing Washington Center
Sat 12:29:36 PM 35.1703 -78.1811 22° Northeast 195 224 22,100 1,678 Climbing Washington Center
Sat 12:30:34 PM 35.2250 -78.1575 19° North 195 224 23,600 1,462 Climbing Washington Center
Sat 12:31:35 PM 35.2778 -78.1311 22° Northeast 200 230 25,000 738 Climbing Washington Center
Sat 12:32:36 PM 35.3411 -78.1000 22° Northeast 213 245 25,100  Climbing Washington Center
Sat 12:33:36 PM 35.4128 -78.0642 22° Northeast 247 284 25,000 -50 Descending Washington Center
Sat 12:34:36 PM 35.4908 -78.0231 23° Northeast 274 315 25,000  Level Washington Center
Sat 12:35:34 PM 35.5667 -77.9897 20° North 286 329 25,000  Level Washington Center
Sat 12:36:35 PM 35.6425 -77.9561 20° North 291 335 25,000  Level Washington Center
Sat 12:37:36 PM 35.7183 -77.9150 24° Northeast 291 335 25,000  Level Washington Center
Sat 12:38:37 PM 35.7942 -77.8814 20° North 291 335 25,000  Level Washington Center
Sat 12:39:35 PM 35.8700 -77.8450 21° North 291 335 25,000  Level Washington Center
Sat 12:40:35 PM 35.9458 -77.8089 21° North 291 335 25,000  Level Washington Center
Sat 12:41:35 PM 36.0214 -77.7725 21° North 291 335 25,000  Level Washington Center
Sat 12:42:36 PM 36.0953 -77.7333 23° Northeast 291 335 25,000  Level Washington Center
Sat 12:43:36 PM 36.1708 -77.6992 20° North 291 335 25,000  Level Washington Center
Sat 12:44:33 PM 36.2447 -77.6628 22° Northeast 291 335 25,000  Level Washington Center
Sat 12:45:34 PM 36.3203 -77.6261 21° North 291 335 25,000  Level Washington Center
Sat 12:46:35 PM 36.3961 -77.5867 23° Northeast 291 335 25,000  Level Washington Center
Sat 12:47:35 PM 36.4697 -77.5497 22° Northeast 291 335 25,000  Level Washington Center
Sat 12:48:36 PM 36.5456 -77.5103 23° Northeast 291 335 25,000  Level Washington Center
Sat 12:49:34 PM 36.6192 -77.4758 21° North 291 335 25,000  Level Washington Center
Sat 12:50:34 PM 36.6947 -77.4364 23° Northeast 291 335 25,000  Level Washington Center
Sat 12:51:34 PM 36.7706 -77.3967 23° Northeast 291 335 25,000  Level Washington Center
Sat 12:52:35 PM 36.8461 -77.3594 22° Northeast 291 335 25,000  Level Washington Center
Sat 12:53:34 PM 36.9197 -77.3222 22° Northeast 291 335 25,000  Level Washington Center
Sat 12:54:34 PM 36.9953 -77.2847 22° Northeast 291 335 25,000  Level Washington Center
Sat 12:55:35 PM 37.0689 -77.2475 22° Northeast 291 335 25,000 50 Level Washington Center
Sat 12:56:35 PM 37.1444 -77.2100 22° Northeast 291 335 25,100  Climbing Washington Center
Sat 12:57:36 PM 37.2181 -77.1722 22° Northeast 291 335 25,000 -50 Descending Washington Center
Sat 12:58:34 PM 37.2894 -77.1400 20° North 279 321 25,000 50 Level Washington Center
Sat 12:59:35 PM 37.3692 -77.0969 23° Northeast 279 321 25,100  Climbing Washington Center
Sat 01:00:35 PM 37.4344 -77.0564 26° Northeast 279 321 25,000 -303 Descending Washington Center
Sat 01:01:34 PM 37.5100 -77.0133 24° Northeast 279 321 24,500 -605 Descending Washington Center
Sat 01:02:34 PM 37.5811 -76.9833 18° North 279 321 23,800 -694 Descending Washington Center
Sat 01:03:35 PM 37.6525 -76.9531 19° North 269 310 23,100 -344 Descending Washington Center
Sat 01:04:36 PM 37.7217 -76.9228 19° North 269 310 23,100  Level Washington Center
Sat 01:05:34 PM 37.7908 -76.8953 17° North 264 304 23,100  Level Washington Center
Sat 01:06:34 PM 37.8600 -76.8675 18° North 264 304 23,100 -49 Level Washington Center
Sat 01:07:36 PM 37.9269 -76.8344 21° North 264 304 23,000  Descending Washington Center
Sat 01:08:34 PM 37.9961 -76.7906 27° Northeast 264 304 23,100 51 Climbing Washington Center
Sat 01:09:34 PM 38.0614 -76.7494 26° Northeast 264 304 23,100  Level Washington Center
Sat 01:10:35 PM 38.1264 -76.7083 26° Northeast 259 298 23,100  Level Washington Center
Sat 01:11:36 PM 38.1933 -76.6669 26° Northeast 259 298 23,100  Level Washington Center
Sat 01:12:33 PM 38.2606 -76.6256 26° Northeast 259 298 23,100  Level Washington Center
Sat 01:13:34 PM 38.3317 -76.5842 25° Northeast 259 298 23,100  Level Washington Center
Sat 01:14:34 PM 38.3989 -76.5456 24° Northeast 259 298 23,100  Level Washington Center
Sat 01:15:35 PM 38.4636 -76.5039 27° Northeast 259 298 23,100  Level Washington Center
Sat 01:16:36 PM 38.5286 -76.4622 27° Northeast 259 298 23,100  Level Washington Center
Sat 01:17:33 PM 38.5936 -76.4206 27° Northeast 259 298 23,100  Level Washington Center
Sat 01:18:35 PM 38.6564 -76.3786 28° Northeast 259 298 23,100  Level Washington Center
Sat 01:19:36 PM 38.7214 -76.3394 25° Northeast 259 298 23,100  Level Washington Center
Sat 01:20:36 PM 38.7861 -76.3000 25° Northeast 259 298 23,100  Level Washington Center
Sat 01:21:34 PM 38.8511 -76.2608 25° Northeast 259 298 23,100  Level Washington Center
Sat 01:22:35 PM 38.9158 -76.2158 28° Northeast 259 298 23,100  Level Washington Center
Sat 01:23:35 PM 38.9806 -76.1817 22° Northeast 259 298 23,100  Level Washington Center
Sat 01:24:35 PM 39.0517 -76.1503 19° North 259 298 23,100  Level Washington Center
Sat 01:25:36 PM 39.1164 -76.1158 22° Northeast 259 298 23,100  Level Washington Center
Sat 01:27:12 PM 39.2189 -76.0664 20° North 248 285 23,100  Level New York Center
Sat 01:28:12 PM 39.2872 -76.0339 20° North 248 285 23,100  Level New York Center
Sat 01:29:12 PM 39.3533 -75.9986 22° Northeast 248 285 23,100 -50 Level New York Center
Sat 01:30:12 PM 39.4194 -75.9686 19° North 248 285 23,000 -500 Descending New York Center
Sat 01:31:12 PM 39.4872 -75.9439 16° North 253 291 22,100 -1,050 Descending New York Center
Sat 01:32:12 PM 39.5547 -75.9272 11° North 247 284 20,900 -1,200 Descending New York Center
Sat 01:33:12 PM 39.6219 -75.9161 North 242 278 19,700 -900 Descending New York Center
Sat 01:34:12 PM 39.6914 -75.8994 10° North 242 278 19,100 -300 Descending New York Center
Sat 01:35:12 PM 39.7628 -75.8858 North 242 278 19,100  Level New York Center
Sat 01:36:12 PM 39.8322 -75.8719 North 242 278 19,100  Level New York Center
Sat 01:37:12 PM 39.9017 -75.8556 10° North 242 278 19,100 -200 Level New York Center
Sat 01:38:12 PM 39.9778 -75.8339 12° North 242 278 18,700 -550 Descending New York Center
Sat 01:39:12 PM 40.0472 -75.8172 10° North 242 278 18,000 -650 Descending New York Center
Sat 01:40:12 PM 40.1083 -75.8000 12° North 242 278 17,400 -650 Descending New York Center
Sat 01:41:12 PM 40.1800 -75.7861 North 237 273 16,700 -700 Descending New York Center
Sat 01:42:12 PM 40.2453 -75.7692 11° North 242 278 16,000 -700 Descending New York Center
Sat 01:43:12 PM 40.3022 -75.7542 11° North 237 273 15,300 -700 Descending New York Center
Sat 01:44:12 PM 40.3653 -75.7397 10° North 230 265 14,600 -800 Descending New York Center
Sat 01:45:12 PM 40.4308 -75.7197 13° North 217 250 13,700 -800 Descending New York Center
Sat 01:46:12 PM 40.4792 -75.6578 44° Northeast 217 250 13,000 -700 Descending New York Center
Sat 01:47:12 PM 40.5211 -75.5981 47° Northeast 222 255 12,300 -750 Descending New York Center
Sat 01:48:12 PM 40.5675 -75.5356 46° Northeast 227 261 11,500 -600 Descending New York Center
Sat 01:49:12 PM 40.6114 -75.4786 45° Northeast 227 261 11,100 -500 Descending New York Center
Sat 01:50:12 PM 40.6533 -75.4211 46° Northeast 220 253 10,500 -694 Descending New York Center
Sat 01:51:13 PM 40.6928 -75.3692 45° Northeast 220 253 9,700 -800 Descending New York Center
Sat 01:52:12 PM 40.7347 -75.3117 46° Northeast 210 242 8,900 -908 Descending New York Center
Sat 01:53:12 PM 40.7828 -75.2547 42° Northeast 210 242 7,900 -1,000 Descending New York Center
Sat 01:54:12 PM 40.8222 -75.1997 47° Northeast 215 247 6,900 -1,000 Descending New York Center
Sat 01:55:12 PM 40.8578 -75.1389 52° Northeast 209 241 5,900 -992 Descending New York Center
Sat 01:56:13 PM 40.8769 -75.0769 68° East 198 228 4,900 -950 Descending New York Center
Sat 01:57:12 PM 40.8978 -75.0178 65° Northeast 186 214 4,000 -403 Descending New York Center
Sat 01:58:12 PM 40.9167 -74.9558 68° East 168 193 4,100 -100 Climbing New York Center
Sat 01:59:12 PM 40.9353 -74.9022 65° Northeast 162 186 3,800 -500 Descending New York Center
Sat 02:00:12 PM 40.9542 -74.8372 69° East 176 203 3,100 -397 Descending New York Center
Sat 02:01:13 PM 40.9728 -74.7753 68° East 176 203 3,000 -98 Descending New York Center

Login

Don't have an account? Register now (free) for customized features, flight alerts, and more!